sensor_id;sensor_type;location;lat;lon;timestamp;temperature;humidity
22471;DHT22;11402;51.374;6.594;2023-06-10T00:01:32;22.00;99.90
22471;DHT22;11402;51.374;6.594;2023-06-10T00:04:02;22.10;99.90
22471;DHT22;11402;51.374;6.594;2023-06-10T00:06:27;22.10;99.90
22471;DHT22;11402;51.374;6.594;2023-06-10T00:08:54;22.00;99.90
22471;DHT22;11402;51.374;6.594;2023-06-10T00:11:20;22.10;99.90
22471;DHT22;11402;51.374;6.594;2023-06-10T00:13:46;22.00;99.90
22471;DHT22;11402;51.374;6.594;2023-06-10T00:16:12;21.90;99.90
22471;DHT22;11402;51.374;6.594;2023-06-10T00:18:38;21.90;99.90
22471;DHT22;11402;51.374;6.594;2023-06-10T00:21:04;21.90;99.90
22471;DHT22;11402;51.374;6.594;2023-06-10T00:23:30;21.80;99.90
22471;DHT22;11402;51.374;6.594;2023-06-10T00:26:03;21.80;99.90
22471;DHT22;11402;51.374;6.594;2023-06-10T00:28:29;21.80;99.90
22471;DHT22;11402;51.374;6.594;2023-06-10T00:30:55;21.80;99.90
22471;DHT22;11402;51.374;6.594;2023-06-10T00:33:21;21.70;99.90
22471;DHT22;11402;51.374;6.594;2023-06-10T00:35:46;21.70;99.90
22471;DHT22;11402;51.374;6.594;2023-06-10T00:38:13;21.50;99.90
22471;DHT22;11402;51.374;6.594;2023-06-10T00:40:40;21.40;99.90
22471;DHT22;11402;51.374;6.594;2023-06-10T00:43:09;21.20;99.90
22471;DHT22;11402;51.374;6.594;2023-06-10T00:45:34;21.40;99.90
22471;DHT22;11402;51.374;6.594;2023-06-10T00:48:01;21.50;99.90
22471;DHT22;11402;51.374;6.594;2023-06-10T00:50:27;21.60;99.90
22471;DHT22;11402;51.374;6.594;2023-06-10T00:52:54;21.60;99.90
22471;DHT22;11402;51.374;6.594;2023-06-10T00:55:20;21.30;99.90
22471;DHT22;11402;51.374;6.594;2023-06-10T00:57:46;21.20;99.90
22471;DHT22;11402;51.374;6.594;2023-06-10T01:00:14;21.20;99.90
22471;DHT22;11402;51.374;6.594;2023-06-10T01:02:41;21.30;99.90
22471;DHT22;11402;51.374;6.594;2023-06-10T01:05:08;21.10;99.90
22471;DHT22;11402;51.374;6.594;2023-06-10T01:07:55;21.00;99.90
22471;DHT22;11402;51.374;6.594;2023-06-10T01:10:34;20.90;99.90
22471;DHT22;11402;51.374;6.594;2023-06-10T01:13:07;20.90;99.90
22471;DHT22;11402;51.374;6.594;2023-06-10T01:15:34;20.80;99.90
22471;DHT22;11402;51.374;6.594;2023-06-10T01:18:05;20.70;99.90
22471;DHT22;11402;51.374;6.594;2023-06-10T01:20:34;20.70;99.90
22471;DHT22;11402;51.374;6.594;2023-06-10T01:23:00;20.70;99.90
22471;DHT22;11402;51.374;6.594;2023-06-10T01:25:29;20.90;99.90
22471;DHT22;11402;51.374;6.594;2023-06-10T01:34:00;20.50;99.90
22471;DHT22;11402;51.374;6.594;2023-06-10T01:36:27;20.40;99.90
22471;DHT22;11402;51.374;6.594;2023-06-10T01:38:54;20.30;99.90
22471;DHT22;11402;51.374;6.594;2023-06-10T01:41:21;20.30;99.90
22471;DHT22;11402;51.374;6.594;2023-06-10T01:43:47;20.40;99.90
22471;DHT22;11402;51.374;6.594;2023-06-10T01:46:14;20.30;99.90
22471;DHT22;11402;51.374;6.594;2023-06-10T01:48:41;20.20;99.90
22471;DHT22;11402;51.374;6.594;2023-06-10T01:51:07;20.20;99.90
22471;DHT22;11402;51.374;6.594;2023-06-10T01:53:33;20.10;99.90
22471;DHT22;11402;51.374;6.594;2023-06-10T01:55:58;20.10;99.90
22471;DHT22;11402;51.374;6.594;2023-06-10T01:58:24;20.10;99.90
22471;DHT22;11402;51.374;6.594;2023-06-10T02:00:50;20.10;99.90
22471;DHT22;11402;51.374;6.594;2023-06-10T02:03:15;20.10;99.90
22471;DHT22;11402;51.374;6.594;2023-06-10T02:05:41;20.00;99.90
22471;DHT22;11402;51.374;6.594;2023-06-10T02:08:06;19.80;99.90
22471;DHT22;11402;51.374;6.594;2023-06-10T02:10:32;19.70;99.90
22471;DHT22;11402;51.374;6.594;2023-06-10T02:12:58;19.50;99.90
22471;DHT22;11402;51.374;6.594;2023-06-10T02:15:23;19.70;99.90
22471;DHT22;11402;51.374;6.594;2023-06-10T02:17:49;19.40;99.90
22471;DHT22;11402;51.374;6.594;2023-06-10T02:20:16;19.40;99.90
22471;DHT22;11402;51.374;6.594;2023-06-10T02:22:41;19.30;99.90
22471;DHT22;11402;51.374;6.594;2023-06-10T02:25:07;19.10;99.90
22471;DHT22;11402;51.374;6.594;2023-06-10T02:27:33;19.00;99.90
22471;DHT22;11402;51.374;6.594;2023-06-10T02:29:59;19.00;99.90
22471;DHT22;11402;51.374;6.594;2023-06-10T02:32:24;19.00;99.90
22471;DHT22;11402;51.374;6.594;2023-06-10T02:34:51;18.80;99.90
22471;DHT22;11402;51.374;6.594;2023-06-10T02:37:17;18.70;99.90
22471;DHT22;11402;51.374;6.594;2023-06-10T02:39:42;18.80;99.90
22471;DHT22;11402;51.374;6.594;2023-06-10T02:42:08;18.60;99.90
22471;DHT22;11402;51.374;6.594;2023-06-10T02:44:34;17.40;99.90
22471;DHT22;11402;51.374;6.594;2023-06-10T02:46:59;18.70;99.90
22471;DHT22;11402;51.374;6.594;2023-06-10T02:49:25;18.30;99.90
22471;DHT22;11402;51.374;6.594;2023-06-10T02:51:53;18.70;99.90
22471;DHT22;11402;51.374;6.594;2023-06-10T02:54:25;18.60;99.90
22471;DHT22;11402;51.374;6.594;2023-06-10T02:56:52;18.40;99.90
22471;DHT22;11402;51.374;6.594;2023-06-10T02:59:18;18.50;99.90
22471;DHT22;11402;51.374;6.594;2023-06-10T03:01:43;18.40;99.90
22471;DHT22;11402;51.374;6.594;2023-06-10T03:04:09;18.40;99.90
22471;DHT22;11402;51.374;6.594;2023-06-10T03:06:35;18.40;99.90
22471;DHT22;11402;51.374;6.594;2023-06-10T03:09:01;18.10;99.90
22471;DHT22;11402;51.374;6.594;2023-06-10T03:11:27;18.20;99.90
22471;DHT22;11402;51.374;6.594;2023-06-10T03:13:53;18.70;99.90
22471;DHT22;11402;51.374;6.594;2023-06-10T03:16:21;18.20;99.90
22471;DHT22;11402;51.374;6.594;2023-06-10T03:18:46;18.20;99.90
22471;DHT22;11402;51.374;6.594;2023-06-10T03:21:12;18.00;99.90
22471;DHT22;11402;51.374;6.594;2023-06-10T03:23:38;18.20;99.90
22471;DHT22;11402;51.374;6.594;2023-06-10T03:26:04;18.10;99.90
22471;DHT22;11402;51.374;6.594;2023-06-10T03:28:30;18.00;99.90
22471;DHT22;11402;51.374;6.594;2023-06-10T03:30:56;18.00;99.90
22471;DHT22;11402;51.374;6.594;2023-06-10T03:33:22;18.00;99.90
22471;DHT22;11402;51.374;6.594;2023-06-10T03:35:47;16.70;99.90
22471;DHT22;11402;51.374;6.594;2023-06-10T03:38:13;17.90;99.90
22471;DHT22;11402;51.374;6.594;2023-06-10T03:40:39;17.80;99.90
22471;DHT22;11402;51.374;6.594;2023-06-10T03:43:04;17.80;99.90
22471;DHT22;11402;51.374;6.594;2023-06-10T03:45:30;17.70;99.90
22471;DHT22;11402;51.374;6.594;2023-06-10T03:47:56;17.80;99.90
22471;DHT22;11402;51.374;6.594;2023-06-10T03:50:21;17.80;99.90
22471;DHT22;11402;51.374;6.594;2023-06-10T03:52:48;17.60;99.90
22471;DHT22;11402;51.374;6.594;2023-06-10T03:55:14;17.70;99.90
22471;DHT22;11402;51.374;6.594;2023-06-10T03:57:42;17.80;99.90
22471;DHT22;11402;51.374;6.594;2023-06-10T04:00:09;17.80;99.90
22471;DHT22;11402;51.374;6.594;2023-06-10T04:02:38;17.80;99.90
22471;DHT22;11402;51.374;6.594;2023-06-10T04:05:17;17.70;99.90
22471;DHT22;11402;51.374;6.594;2023-06-10T04:07:43;17.60;99.90
22471;DHT22;11402;51.374;6.594;2023-06-10T04:10:12;17.70;99.90
22471;DHT22;11402;51.374;6.594;2023-06-10T04:12:38;17.70;99.90
22471;DHT22;11402;51.374;6.594;2023-06-10T04:15:04;17.70;99.90
22471;DHT22;11402;51.374;6.594;2023-06-10T04:17:30;17.80;99.90
22471;DHT22;11402;51.374;6.594;2023-06-10T04:19:56;18.00;99.90
22471;DHT22;11402;51.374;6.594;2023-06-10T04:22:22;18.10;99.90
22471;DHT22;11402;51.374;6.594;2023-06-10T04:24:51;18.00;99.90
22471;DHT22;11402;51.374;6.594;2023-06-10T04:27:17;18.10;99.90
22471;DHT22;11402;51.374;6.594;2023-06-10T04:29:42;18.20;99.90
22471;DHT22;11402;51.374;6.594;2023-06-10T04:32:08;18.40;99.90
22471;DHT22;11402;51.374;6.594;2023-06-10T04:34:34;18.60;99.90
22471;DHT22;11402;51.374;6.594;2023-06-10T04:36:59;18.70;99.90
22471;DHT22;11402;51.374;6.594;2023-06-10T04:39:25;18.90;99.90
22471;DHT22;11402;51.374;6.594;2023-06-10T04:41:51;18.90;99.90
22471;DHT22;11402;51.374;6.594;2023-06-10T04:44:17;18.90;99.90
22471;DHT22;11402;51.374;6.594;2023-06-10T04:46:42;18.90;99.90
22471;DHT22;11402;51.374;6.594;2023-06-10T04:49:08;19.00;99.90
22471;DHT22;11402;51.374;6.594;2023-06-10T04:51:33;19.10;99.90
22471;DHT22;11402;51.374;6.594;2023-06-10T04:53:59;19.00;99.90
22471;DHT22;11402;51.374;6.594;2023-06-10T04:56:29;19.10;99.90
22471;DHT22;11402;51.374;6.594;2023-06-10T04:58:58;19.20;99.90
22471;DHT22;11402;51.374;6.594;2023-06-10T05:01:24;19.30;99.90
22471;DHT22;11402;51.374;6.594;2023-06-10T05:03:50;19.40;99.90
22471;DHT22;11402;51.374;6.594;2023-06-10T05:06:16;19.40;99.90
22471;DHT22;11402;51.374;6.594;2023-06-10T05:08:41;19.60;99.90
22471;DHT22;11402;51.374;6.594;2023-06-10T05:11:07;19.60;99.90
22471;DHT22;11402;51.374;6.594;2023-06-10T05:13:33;19.60;99.90
22471;DHT22;11402;51.374;6.594;2023-06-10T05:15:58;19.60;99.90
22471;DHT22;11402;51.374;6.594;2023-06-10T05:18:24;19.60;99.90
22471;DHT22;11402;51.374;6.594;2023-06-10T05:20:50;19.60;99.90
22471;DHT22;11402;51.374;6.594;2023-06-10T05:23:15;19.80;99.90
22471;DHT22;11402;51.374;6.594;2023-06-10T05:25:41;19.80;99.90
22471;DHT22;11402;51.374;6.594;2023-06-10T05:28:08;19.90;99.90
22471;DHT22;11402;51.374;6.594;2023-06-10T05:30:35;20.10;99.90
22471;DHT22;11402;51.374;6.594;2023-06-10T05:33:02;20.00;99.90
22471;DHT22;11402;51.374;6.594;2023-06-10T05:35:28;20.00;99.90
22471;DHT22;11402;51.374;6.594;2023-06-10T05:37:53;20.10;99.90
22471;DHT22;11402;51.374;6.594;2023-06-10T05:40:19;20.30;99.90
22471;DHT22;11402;51.374;6.594;2023-06-10T05:42:45;20.40;99.90
22471;DHT22;11402;51.374;6.594;2023-06-10T05:45:10;20.30;99.90
22471;DHT22;11402;51.374;6.594;2023-06-10T05:47:36;20.20;99.90
22471;DHT22;11402;51.374;6.594;2023-06-10T05:50:02;20.40;99.90
22471;DHT22;11402;51.374;6.594;2023-06-10T05:52:28;20.30;99.90
22471;DHT22;11402;51.374;6.594;2023-06-10T05:54:53;20.40;99.90
22471;DHT22;11402;51.374;6.594;2023-06-10T05:57:19;20.30;99.90
22471;DHT22;11402;51.374;6.594;2023-06-10T05:59:45;20.40;99.90
22471;DHT22;11402;51.374;6.594;2023-06-10T06:02:10;20.50;99.90
22471;DHT22;11402;51.374;6.594;2023-06-10T06:04:36;20.50;99.90
22471;DHT22;11402;51.374;6.594;2023-06-10T06:07:02;20.70;99.90
22471;DHT22;11402;51.374;6.594;2023-06-10T06:09:28;20.70;99.90
22471;DHT22;11402;51.374;6.594;2023-06-10T06:11:53;20.80;99.90
22471;DHT22;11402;51.374;6.594;2023-06-10T06:14:19;20.80;99.90
22471;DHT22;11402;51.374;6.594;2023-06-10T06:16:45;20.80;99.90
22471;DHT22;11402;51.374;6.594;2023-06-10T06:21:38;21.00;99.90
22471;DHT22;11402;51.374;6.594;2023-06-10T06:24:03;21.30;99.90
22471;DHT22;11402;51.374;6.594;2023-06-10T06:26:29;21.30;99.90
22471;DHT22;11402;51.374;6.594;2023-06-10T06:28:55;21.20;99.90
22471;DHT22;11402;51.374;6.594;2023-06-10T06:31:20;21.20;99.90
22471;DHT22;11402;51.374;6.594;2023-06-10T06:33:46;21.40;99.90
22471;DHT22;11402;51.374;6.594;2023-06-10T06:36:11;21.60;99.90
22471;DHT22;11402;51.374;6.594;2023-06-10T06:38:37;21.60;99.90
22471;DHT22;11402;51.374;6.594;2023-06-10T06:41:02;21.80;99.90
22471;DHT22;11402;51.374;6.594;2023-06-10T06:43:31;21.80;99.90
22471;DHT22;11402;51.374;6.594;2023-06-10T06:45:57;21.90;99.90
22471;DHT22;11402;51.374;6.594;2023-06-10T06:48:23;22.10;99.90
22471;DHT22;11402;51.374;6.594;2023-06-10T06:50:49;21.90;99.90
22471;DHT22;11402;51.374;6.594;2023-06-10T06:53:14;22.00;99.90
22471;DHT22;11402;51.374;6.594;2023-06-10T06:55:40;22.10;99.90
22471;DHT22;11402;51.374;6.594;2023-06-10T06:58:06;22.10;99.90
22471;DHT22;11402;51.374;6.594;2023-06-10T07:00:32;22.00;99.90
22471;DHT22;11402;51.374;6.594;2023-06-10T07:02:58;22.10;99.90
22471;DHT22;11402;51.374;6.594;2023-06-10T07:05:24;22.20;99.90
22471;DHT22;11402;51.374;6.594;2023-06-10T07:07:53;22.20;99.90
22471;DHT22;11402;51.374;6.594;2023-06-10T07:10:21;22.20;99.90
22471;DHT22;11402;51.374;6.594;2023-06-10T07:12:47;22.50;99.90
22471;DHT22;11402;51.374;6.594;2023-06-10T07:15:13;22.80;99.90
22471;DHT22;11402;51.374;6.594;2023-06-10T07:17:39;22.60;99.90
22471;DHT22;11402;51.374;6.594;2023-06-10T07:20:05;22.50;99.90
22471;DHT22;11402;51.374;6.594;2023-06-10T07:22:30;22.80;99.90
22471;DHT22;11402;51.374;6.594;2023-06-10T07:24:57;22.80;99.90
22471;DHT22;11402;51.374;6.594;2023-06-10T07:27:22;22.80;99.90
22471;DHT22;11402;51.374;6.594;2023-06-10T07:29:48;22.70;99.90
22471;DHT22;11402;51.374;6.594;2023-06-10T07:32:13;22.70;99.90
22471;DHT22;11402;51.374;6.594;2023-06-10T07:34:39;23.00;99.90
22471;DHT22;11402;51.374;6.594;2023-06-10T07:37:05;22.80;99.90
22471;DHT22;11402;51.374;6.594;2023-06-10T07:39:31;22.70;99.90
22471;DHT22;11402;51.374;6.594;2023-06-10T07:41:56;22.80;99.90
22471;DHT22;11402;51.374;6.594;2023-06-10T07:44:23;23.00;99.90
22471;DHT22;11402;51.374;6.594;2023-06-10T07:46:48;23.30;99.90
22471;DHT22;11402;51.374;6.594;2023-06-10T07:49:14;23.30;99.90
22471;DHT22;11402;51.374;6.594;2023-06-10T07:51:40;23.40;99.90
22471;DHT22;11402;51.374;6.594;2023-06-10T07:54:05;23.60;99.90
22471;DHT22;11402;51.374;6.594;2023-06-10T07:56:31;23.40;99.90
22471;DHT22;11402;51.374;6.594;2023-06-10T07:58:57;23.60;99.90
22471;DHT22;11402;51.374;6.594;2023-06-10T08:01:23;23.90;99.90
22471;DHT22;11402;51.374;6.594;2023-06-10T08:03:49;23.80;99.90
22471;DHT22;11402;51.374;6.594;2023-06-10T08:06:15;23.90;99.90
22471;DHT22;11402;51.374;6.594;2023-06-10T08:08:42;23.90;99.90
22471;DHT22;11402;51.374;6.594;2023-06-10T08:11:12;23.90;99.90
22471;DHT22;11402;51.374;6.594;2023-06-10T08:13:38;24.20;99.90
22471;DHT22;11402;51.374;6.594;2023-06-10T08:16:05;24.20;99.90
22471;DHT22;11402;51.374;6.594;2023-06-10T08:18:31;24.10;99.90
22471;DHT22;11402;51.374;6.594;2023-06-10T08:20:56;24.20;99.90
22471;DHT22;11402;51.374;6.594;2023-06-10T08:23:22;24.20;99.90
22471;DHT22;11402;51.374;6.594;2023-06-10T08:25:48;24.30;99.90
22471;DHT22;11402;51.374;6.594;2023-06-10T08:28:13;24.50;99.90
22471;DHT22;11402;51.374;6.594;2023-06-10T08:30:39;24.70;99.90
22471;DHT22;11402;51.374;6.594;2023-06-10T08:33:04;24.70;99.90
22471;DHT22;11402;51.374;6.594;2023-06-10T08:35:30;24.60;99.90
22471;DHT22;11402;51.374;6.594;2023-06-10T08:37:56;24.80;99.90
22471;DHT22;11402;51.374;6.594;2023-06-10T08:40:21;25.00;99.90
22471;DHT22;11402;51.374;6.594;2023-06-10T08:43:04;25.00;99.90
22471;DHT22;11402;51.374;6.594;2023-06-10T08:45:31;24.80;99.90
22471;DHT22;11402;51.374;6.594;2023-06-10T08:47:57;24.80;99.90
22471;DHT22;11402;51.374;6.594;2023-06-10T08:50:25;24.90;99.90
22471;DHT22;11402;51.374;6.594;2023-06-10T08:52:57;25.20;99.90
22471;DHT22;11402;51.374;6.594;2023-06-10T08:55:30;25.40;99.90
22471;DHT22;11402;51.374;6.594;2023-06-10T08:58:00;25.30;99.90
22471;DHT22;11402;51.374;6.594;2023-06-10T09:00:27;25.30;99.90
22471;DHT22;11402;51.374;6.594;2023-06-10T09:02:54;25.30;99.90
22471;DHT22;11402;51.374;6.594;2023-06-10T09:05:20;25.20;99.90
22471;DHT22;11402;51.374;6.594;2023-06-10T09:07:48;25.30;99.90
22471;DHT22;11402;51.374;6.594;2023-06-10T09:10:14;25.30;99.90
22471;DHT22;11402;51.374;6.594;2023-06-10T09:12:40;25.60;99.90
22471;DHT22;11402;51.374;6.594;2023-06-10T09:15:07;25.60;99.90
22471;DHT22;11402;51.374;6.594;2023-06-10T09:17:32;27.10;99.90
22471;DHT22;11402;51.374;6.594;2023-06-10T09:20:00;26.00;99.90
22471;DHT22;11402;51.374;6.594;2023-06-10T09:22:25;25.90;99.90
22471;DHT22;11402;51.374;6.594;2023-06-10T09:25:02;26.10;99.90
22471;DHT22;11402;51.374;6.594;2023-06-10T09:27:30;26.30;99.90
22471;DHT22;11402;51.374;6.594;2023-06-10T09:29:57;26.20;99.90
22471;DHT22;11402;51.374;6.594;2023-06-10T09:32:24;26.20;99.90
22471;DHT22;11402;51.374;6.594;2023-06-10T09:34:50;26.30;99.90
22471;DHT22;11402;51.374;6.594;2023-06-10T09:37:25;26.50;99.90
22471;DHT22;11402;51.374;6.594;2023-06-10T09:40:02;26.70;99.90
22471;DHT22;11402;51.374;6.594;2023-06-10T09:42:32;26.50;99.90
22471;DHT22;11402;51.374;6.594;2023-06-10T09:44:59;26.50;99.90
22471;DHT22;11402;51.374;6.594;2023-06-10T09:47:25;26.80;99.90
22471;DHT22;11402;51.374;6.594;2023-06-10T09:49:51;26.90;99.90
22471;DHT22;11402;51.374;6.594;2023-06-10T09:52:26;26.90;99.90
22471;DHT22;11402;51.374;6.594;2023-06-10T09:54:52;26.70;99.90
22471;DHT22;11402;51.374;6.594;2023-06-10T09:57:19;26.90;99.90
22471;DHT22;11402;51.374;6.594;2023-06-10T09:59:45;27.10;99.90
22471;DHT22;11402;51.374;6.594;2023-06-10T10:02:15;27.30;99.90
22471;DHT22;11402;51.374;6.594;2023-06-10T10:04:44;27.10;99.30
22471;DHT22;11402;51.374;6.594;2023-06-10T10:07:11;27.20;97.40
22471;DHT22;11402;51.374;6.594;2023-06-10T10:09:37;27.20;98.60
22471;DHT22;11402;51.374;6.594;2023-06-10T10:12:14;27.20;99.70
22471;DHT22;11402;51.374;6.594;2023-06-10T10:14:46;27.20;96.50
22471;DHT22;11402;51.374;6.594;2023-06-10T10:17:14;27.30;95.30
22471;DHT22;11402;51.374;6.594;2023-06-10T10:19:46;27.40;96.00
22471;DHT22;11402;51.374;6.594;2023-06-10T10:22:29;27.40;95.20
22471;DHT22;11402;51.374;6.594;2023-06-10T10:25:01;27.50;97.80
22471;DHT22;11402;51.374;6.594;2023-06-10T10:27:30;27.60;93.40
22471;DHT22;11402;51.374;6.594;2023-06-10T10:29:58;27.50;95.70
22471;DHT22;11402;51.374;6.594;2023-06-10T10:32:37;27.70;95.80
22471;DHT22;11402;51.374;6.594;2023-06-10T10:35:20;27.80;97.50
22471;DHT22;11402;51.374;6.594;2023-06-10T10:37:48;27.80;91.10
22471;DHT22;11402;51.374;6.594;2023-06-10T10:40:15;27.80;91.70
22471;DHT22;11402;51.374;6.594;2023-06-10T10:42:41;27.80;91.30
22471;DHT22;11402;51.374;6.594;2023-06-10T10:45:09;27.70;87.50
22471;DHT22;11402;51.374;6.594;2023-06-10T10:47:36;27.70;87.40
22471;DHT22;11402;51.374;6.594;2023-06-10T10:50:16;27.80;90.00
22471;DHT22;11402;51.374;6.594;2023-06-10T10:52:55;28.00;88.60
22471;DHT22;11402;51.374;6.594;2023-06-10T10:55:22;27.90;87.20
22471;DHT22;11402;51.374;6.594;2023-06-10T10:57:55;28.00;88.60
22471;DHT22;11402;51.374;6.594;2023-06-10T11:00:32;27.80;84.40
22471;DHT22;11402;51.374;6.594;2023-06-10T11:03:12;28.00;87.40
22471;DHT22;11402;51.374;6.594;2023-06-10T11:05:42;28.10;85.80
22471;DHT22;11402;51.374;6.594;2023-06-10T11:08:59;28.10;86.70
22471;DHT22;11402;51.374;6.594;2023-06-10T11:11:00;28.20;83.70
22471;DHT22;11402;51.374;6.594;2023-06-10T11:13:27;28.20;75.10
22471;DHT22;11402;51.374;6.594;2023-06-10T11:15:57;28.20;80.40
22471;DHT22;11402;51.374;6.594;2023-06-10T11:18:27;28.30;79.50
22471;DHT22;11402;51.374;6.594;2023-06-10T11:20:56;28.30;74.00
22471;DHT22;11402;51.374;6.594;2023-06-10T11:26:19;28.20;74.80
22471;DHT22;11402;51.374;6.594;2023-06-10T11:31:25;28.30;68.40
22471;DHT22;11402;51.374;6.594;2023-06-10T11:33:56;28.20;69.70
22471;DHT22;11402;51.374;6.594;2023-06-10T11:36:23;28.30;72.30
22471;DHT22;11402;51.374;6.594;2023-06-10T11:38:50;28.40;72.90
22471;DHT22;11402;51.374;6.594;2023-06-10T11:41:18;28.30;68.30
22471;DHT22;11402;51.374;6.594;2023-06-10T11:43:44;28.40;71.50
22471;DHT22;11402;51.374;6.594;2023-06-10T11:46:14;28.30;73.00
22471;DHT22;11402;51.374;6.594;2023-06-10T11:49:01;28.30;70.10
22471;DHT22;11402;51.374;6.594;2023-06-10T11:51:27;28.40;69.30
22471;DHT22;11402;51.374;6.594;2023-06-10T11:53:54;28.50;70.00
22471;DHT22;11402;51.374;6.594;2023-06-10T11:56:24;28.50;69.70
22471;DHT22;11402;51.374;6.594;2023-06-10T11:59:01;28.40;61.70
22471;DHT22;11402;51.374;6.594;2023-06-10T12:01:31;28.50;68.90
22471;DHT22;11402;51.374;6.594;2023-06-10T12:04:03;28.60;66.40
22471;DHT22;11402;51.374;6.594;2023-06-10T12:06:58;28.50;64.40
22471;DHT22;11402;51.374;6.594;2023-06-10T12:09:28;28.60;62.80
22471;DHT22;11402;51.374;6.594;2023-06-10T12:12:03;28.70;62.60
22471;DHT22;11402;51.374;6.594;2023-06-10T12:14:57;28.50;63.90
22471;DHT22;11402;51.374;6.594;2023-06-10T12:20:06;28.60;60.50
22471;DHT22;11402;51.374;6.594;2023-06-10T12:22:42;28.50;63.80
22471;DHT22;11402;51.374;6.594;2023-06-10T12:25:09;28.60;62.90
22471;DHT22;11402;51.374;6.594;2023-06-10T12:27:36;28.50;63.80
22471;DHT22;11402;51.374;6.594;2023-06-10T12:30:03;28.60;63.40
22471;DHT22;11402;51.374;6.594;2023-06-10T12:32:40;28.70;61.40
22471;DHT22;11402;51.374;6.594;2023-06-10T12:35:07;28.60;63.40
22471;DHT22;11402;51.374;6.594;2023-06-10T12:37:33;28.60;61.40
22471;DHT22;11402;51.374;6.594;2023-06-10T12:40:03;28.70;63.20
22471;DHT22;11402;51.374;6.594;2023-06-10T12:42:30;28.60;61.90
22471;DHT22;11402;51.374;6.594;2023-06-10T12:44:56;28.60;61.20
22471;DHT22;11402;51.374;6.594;2023-06-10T12:47:33;28.70;61.10
22471;DHT22;11402;51.374;6.594;2023-06-10T12:50:04;28.60;64.40
22471;DHT22;11402;51.374;6.594;2023-06-10T12:52:30;28.60;63.20
22471;DHT22;11402;51.374;6.594;2023-06-10T12:54:56;28.70;60.70
22471;DHT22;11402;51.374;6.594;2023-06-10T12:57:22;28.80;64.30
22471;DHT22;11402;51.374;6.594;2023-06-10T12:59:48;28.80;61.60
22471;DHT22;11402;51.374;6.594;2023-06-10T13:02:22;28.80;61.70
22471;DHT22;11402;51.374;6.594;2023-06-10T13:04:52;28.80;61.60
22471;DHT22;11402;51.374;6.594;2023-06-10T13:07:18;28.80;62.80
22471;DHT22;11402;51.374;6.594;2023-06-10T13:09:44;28.80;61.20
22471;DHT22;11402;51.374;6.594;2023-06-10T13:12:10;28.80;62.40
22471;DHT22;11402;51.374;6.594;2023-06-10T13:14:37;28.70;60.30
22471;DHT22;11402;51.374;6.594;2023-06-10T13:17:04;28.60;62.30
22471;DHT22;11402;51.374;6.594;2023-06-10T13:19:32;28.80;64.60
22471;DHT22;11402;51.374;6.594;2023-06-10T13:21:58;28.90;63.10
22471;DHT22;11402;51.374;6.594;2023-06-10T13:24:24;28.80;63.20
22471;DHT22;11402;51.374;6.594;2023-06-10T13:26:49;29.00;62.10
22471;DHT22;11402;51.374;6.594;2023-06-10T13:29:15;29.00;60.70
22471;DHT22;11402;51.374;6.594;2023-06-10T13:31:41;28.90;58.20
22471;DHT22;11402;51.374;6.594;2023-06-10T13:34:07;29.00;59.30
22471;DHT22;11402;51.374;6.594;2023-06-10T13:36:33;29.10;60.30
22471;DHT22;11402;51.374;6.594;2023-06-10T13:38:58;29.10;59.90
22471;DHT22;11402;51.374;6.594;2023-06-10T13:41:24;29.10;58.60
22471;DHT22;11402;51.374;6.594;2023-06-10T13:43:50;29.20;59.20
22471;DHT22;11402;51.374;6.594;2023-06-10T13:46:15;29.40;63.20
22471;DHT22;11402;51.374;6.594;2023-06-10T13:48:41;29.50;64.10
22471;DHT22;11402;51.374;6.594;2023-06-10T13:51:07;29.40;64.10
22471;DHT22;11402;51.374;6.594;2023-06-10T13:53:34;29.50;68.60
22471;DHT22;11402;51.374;6.594;2023-06-10T13:56:00;29.40;64.70
22471;DHT22;11402;51.374;6.594;2023-06-10T13:58:25;29.40;66.80
22471;DHT22;11402;51.374;6.594;2023-06-10T14:00:51;29.80;64.50
22471;DHT22;11402;51.374;6.594;2023-06-10T14:03:16;29.50;57.90
22471;DHT22;11402;51.374;6.594;2023-06-10T14:05:42;29.40;64.40
22471;DHT22;11402;51.374;6.594;2023-06-10T14:08:08;29.20;59.50
22471;DHT22;11402;51.374;6.594;2023-06-10T14:10:33;29.00;61.80
22471;DHT22;11402;51.374;6.594;2023-06-10T14:12:59;29.00;64.50
22471;DHT22;11402;51.374;6.594;2023-06-10T14:15:25;28.90;63.70
22471;DHT22;11402;51.374;6.594;2023-06-10T14:17:51;29.00;69.50
22471;DHT22;11402;51.374;6.594;2023-06-10T14:20:17;29.00;68.20
22471;DHT22;11402;51.374;6.594;2023-06-10T14:22:42;29.20;66.90
22471;DHT22;11402;51.374;6.594;2023-06-10T14:25:08;29.10;67.30
22471;DHT22;11402;51.374;6.594;2023-06-10T14:27:33;28.70;60.50
22471;DHT22;11402;51.374;6.594;2023-06-10T14:29:59;28.70;63.30
22471;DHT22;11402;51.374;6.594;2023-06-10T14:32:25;28.70;62.10
22471;DHT22;11402;51.374;6.594;2023-06-10T14:34:50;28.50;59.70
22471;DHT22;11402;51.374;6.594;2023-06-10T14:37:16;28.50;62.10
22471;DHT22;11402;51.374;6.594;2023-06-10T14:39:41;28.60;64.20
22471;DHT22;11402;51.374;6.594;2023-06-10T14:42:07;28.70;64.40
22471;DHT22;11402;51.374;6.594;2023-06-10T14:44:33;28.80;63.40
22471;DHT22;11402;51.374;6.594;2023-06-10T14:46:58;28.90;61.00
22471;DHT22;11402;51.374;6.594;2023-06-10T14:49:24;28.90;61.90
22471;DHT22;11402;51.374;6.594;2023-06-10T14:51:49;29.00;60.20
22471;DHT22;11402;51.374;6.594;2023-06-10T14:54:15;28.80;61.40
22471;DHT22;11402;51.374;6.594;2023-06-10T14:56:41;28.70;60.80
22471;DHT22;11402;51.374;6.594;2023-06-10T14:59:06;28.80;64.90
22471;DHT22;11402;51.374;6.594;2023-06-10T15:01:32;28.80;62.70
22471;DHT22;11402;51.374;6.594;2023-06-10T15:03:58;28.70;64.30
22471;DHT22;11402;51.374;6.594;2023-06-10T15:06:23;28.40;60.40
22471;DHT22;11402;51.374;6.594;2023-06-10T15:08:49;28.40;62.20
22471;DHT22;11402;51.374;6.594;2023-06-10T15:11:15;28.40;63.80
22471;DHT22;11402;51.374;6.594;2023-06-10T15:13:40;28.50;61.80
22471;DHT22;11402;51.374;6.594;2023-06-10T15:16:06;28.50;62.20
22471;DHT22;11402;51.374;6.594;2023-06-10T15:18:32;28.40;61.90
22471;DHT22;11402;51.374;6.594;2023-06-10T15:20:58;28.30;62.60
22471;DHT22;11402;51.374;6.594;2023-06-10T15:23:24;28.30;63.20
22471;DHT22;11402;51.374;6.594;2023-06-10T15:25:50;28.40;62.50
22471;DHT22;11402;51.374;6.594;2023-06-10T15:28:15;28.40;63.70
22471;DHT22;11402;51.374;6.594;2023-06-10T15:30:41;28.30;64.20
22471;DHT22;11402;51.374;6.594;2023-06-10T15:33:06;28.20;62.80
22471;DHT22;11402;51.374;6.594;2023-06-10T15:35:33;28.10;63.90
22471;DHT22;11402;51.374;6.594;2023-06-10T15:37:58;28.20;64.30
22471;DHT22;11402;51.374;6.594;2023-06-10T15:40:24;28.20;63.90
22471;DHT22;11402;51.374;6.594;2023-06-10T15:42:50;28.20;65.30
22471;DHT22;11402;51.374;6.594;2023-06-10T15:45:15;28.30;66.70
22471;DHT22;11402;51.374;6.594;2023-06-10T15:47:41;28.40;64.10